Time;durP1;ratioP1;P1;durP2;ratioP2;P2;SDS_P1;SDS_P2;PMS_P1;PMS_P2;Temp;Humidity;BMP_temperature;BMP_pressure;BME280_temperature;BME280_humidity;BME280_pressure;Samples;Min_cycle;Max_cycle;Signal;HPM_P1;HPM_P2
2023/04/14 00:02:23;;;;;;;6.70;1.73;;;2.90;99.90;;;;;;5067699;28;20041;-79
2023/04/14 00:04:52;;;;;;;11.18;1.88;;;3.00;99.90;;;;;;5066877;28;20035;-65
2023/04/14 00:07:18;;;;;;;8.63;2.17;;;2.90;99.90;;;;;;5069049;28;20483;-65
2023/04/14 00:09:44;;;;;;;7.95;2.33;;;2.90;99.90;;;;;;5066910;28;20063;-65
2023/04/14 00:12:10;;;;;;;14.30;2.30;;;2.90;99.90;;;;;;5068658;28;20072;-83
2023/04/14 00:14:35;;;;;;;12.10;2.50;;;2.90;99.90;;;;;;5068499;28;20033;-65
2023/04/14 00:17:01;;;;;;;8.52;2.10;;;2.90;99.90;;;;;;5066717;28;20045;-65
2023/04/14 00:19:27;;;;;;;16.90;2.90;;;3.00;99.90;;;;;;5068509;28;20057;-65
2023/04/14 00:21:52;;;;;;;15.70;3.88;;;3.00;99.90;;;;;;5067152;28;20694;-65
2023/04/14 00:24:18;;;;;;;16.40;3.17;;;3.00;99.90;;;;;;5068510;28;20464;-65
2023/04/14 00:26:44;;;;;;;12.63;2.20;;;3.00;99.90;;;;;;5065499;28;20052;-80
2023/04/14 00:29:10;;;;;;;11.27;2.47;;;3.10;99.90;;;;;;5066940;28;20125;-65
2023/04/14 00:31:35;;;;;;;11.23;2.30;;;3.10;99.90;;;;;;5059927;28;20547;-65
2023/04/14 00:34:01;;;;;;;7.25;2.15;;;3.10;99.90;;;;;;5062539;28;20102;-65
2023/04/14 00:36:27;;;;;;;14.95;2.25;;;3.00;99.90;;;;;;5061360;28;20102;-65
2023/04/14 00:38:53;;;;;;;8.32;2.08;;;3.00;99.90;;;;;;5052539;28;20080;-65
2023/04/14 00:41:19;;;;;;;10.90;2.30;;;3.00;99.90;;;;;;5056498;28;20430;-66
2023/04/14 00:43:45;;;;;;;8.57;1.85;;;3.00;99.90;;;;;;5052918;28;20055;-79
2023/04/14 00:46:13;;;;;;;7.95;2.15;;;2.90;99.90;;;;;;5067695;28;20048;-66
2023/04/14 00:48:39;;;;;;;11.48;2.20;;;3.00;99.90;;;;;;5064523;28;20037;-76
2023/04/14 00:51:05;;;;;;;13.90;2.47;;;3.00;99.90;;;;;;5066995;28;20050;-65
2023/04/14 00:53:31;;;;;;;4.50;1.67;;;2.90;99.90;;;;;;5066697;28;20091;-65
2023/04/14 00:55:58;;;;;;;14.00;2.40;;;2.90;99.90;;;;;;5065684;28;20084;-77
2023/04/14 00:58:24;;;;;;;14.25;2.13;;;2.80;99.90;;;;;;5067580;28;20417;-65
2023/04/14 01:00:54;;;;;;;7.15;2.17;;;2.80;99.90;;;;;;5064967;28;20487;-73
2023/04/14 01:03:20;;;;;;;8.20;2.50;;;2.90;99.90;;;;;;5065903;28;20044;-66
2023/04/14 01:05:46;;;;;;;13.85;2.65;;;3.00;99.90;;;;;;5065309;28;20079;-65
2023/04/14 01:08:12;;;;;;;10.95;2.47;;;2.90;99.90;;;;;;5066892;28;20045;-65
2023/04/14 01:10:45;;;;;;;11.40;2.58;;;3.00;99.90;;;;;;5065081;28;20067;-65
2023/04/14 01:13:19;;;;;;;13.18;2.95;;;3.00;99.90;;;;;;5066644;28;20464;-65
2023/04/14 01:16:02;;;;;;;15.88;2.65;;;3.00;99.90;;;;;;5067702;28;20082;-65
2023/04/14 01:18:42;;;;;;;16.70;2.25;;;3.00;99.90;;;;;;5056540;28;20048;-81
2023/04/14 01:21:12;;;;;;;16.02;2.90;;;2.90;99.90;;;;;;5067035;28;20632;-65
2023/04/14 01:23:41;;;;;;;10.00;1.98;;;3.10;99.90;;;;;;5067679;28;20041;-65
2023/04/14 01:26:40;;;;;;;11.82;2.47;;;3.00;99.90;;;;;;5065955;28;20151;-65
2023/04/14 01:29:32;;;;;;;9.23;2.40;;;2.90;99.90;;;;;;5028590;28;20045;-84
2023/04/14 01:32:13;;;;;;;20.75;2.75;;;2.90;99.90;;;;;;5066128;28;20083;-65
2023/04/14 01:34:56;;;;;;;9.10;2.33;;;2.80;99.90;;;;;;5067299;28;20113;-65
2023/04/14 01:37:39;;;;;;;14.02;2.53;;;2.80;99.90;;;;;;5067339;28;20098;-65
2023/04/14 01:40:11;;;;;;;8.45;2.25;;;2.80;99.90;;;;;;5064041;28;20056;-65
2023/04/14 01:42:41;;;;;;;10.32;2.70;;;2.80;99.90;;;;;;5067992;28;20105;-65
2023/04/14 01:45:09;;;;;;;;;;;2.70;99.90;;;;;;5065495;28;20565;-79
2023/04/14 01:47:36;;;;;;;17.65;2.88;;;2.70;99.90;;;;;;5066845;28;19971;-66
2023/04/14 01:50:05;;;;;;;15.82;2.85;;;2.70;99.90;;;;;;5066425;28;20089;-78
2023/04/14 01:52:33;;;;;;;10.10;2.70;;;2.70;99.90;;;;;;5066474;28;20132;-80
2023/04/14 01:55:04;;;;;;;14.85;2.95;;;2.60;99.90;;;;;;5067203;28;20078;-65
2023/04/14 01:57:35;;;;;;;10.32;2.58;;;2.60;99.90;;;;;;5066103;28;20048;-76
2023/04/14 02:00:03;;;;;;;11.88;2.47;;;2.60;99.90;;;;;;5067005;28;20041;-66
2023/04/14 02:02:30;;;;;;;10.18;2.80;;;2.60;99.90;;;;;;5075842;28;20487;-65
2023/04/14 02:04:57;;;;;;;9.63;2.88;;;2.70;99.90;;;;;;5066524;28;20052;-65
2023/04/14 02:07:24;;;;;;;11.85;2.53;;;2.60;99.90;;;;;;5066922;28;20028;-65
2023/04/14 02:09:52;;;;;;;8.15;2.65;;;2.60;99.90;;;;;;5065919;28;20147;-65
2023/04/14 02:12:19;;;;;;;14.85;2.80;;;2.70;99.90;;;;;;5066779;28;20545;-66
2023/04/14 02:14:47;;;;;;;10.63;2.63;;;2.70;99.90;;;;;;5065912;28;20045;-65
2023/04/14 02:17:16;;;;;;;15.52;3.13;;;2.70;99.90;;;;;;5065899;28;20398;-65
2023/04/14 02:19:44;;;;;;;6.88;2.67;;;2.70;99.90;;;;;;5066154;28;20127;-65
2023/04/14 02:22:10;;;;;;;9.50;2.30;;;2.80;99.90;;;;;;5066583;28;20053;-83
2023/04/14 02:24:36;;;;;;;10.50;2.63;;;2.80;99.90;;;;;;5065745;28;20052;-65
2023/04/14 02:27:16;;;;;;;8.43;2.67;;;2.70;99.90;;;;;;5065635;28;20128;-65
2023/04/14 02:29:50;;;;;;;10.57;2.30;;;2.70;99.90;;;;;;5066691;28;20044;-68
2023/04/14 02:32:24;;;;;;;6.35;1.92;;;2.70;99.90;;;;;;5066049;28;20044;-66
2023/04/14 02:34:59;;;;;;;7.10;3.08;;;2.70;99.90;;;;;;5068697;28;20055;-66
2023/04/14 02:37:50;;;;;;;8.02;2.38;;;2.60;99.90;;;;;;5068870;28;20056;-65
2023/04/14 02:40:23;;;;;;;11.10;2.35;;;2.70;99.90;;;;;;5059678;28;20175;-83
2023/04/14 02:43:06;;;;;;;8.23;2.08;;;2.80;99.90;;;;;;5070764;28;20048;-65
2023/04/14 02:45:35;;;;;;;11.32;2.10;;;2.90;99.90;;;;;;5069596;28;20131;-65
2023/04/14 02:48:06;;;;;;;10.02;2.28;;;2.90;99.90;;;;;;5085871;28;20049;-66
2023/04/14 02:50:34;;;;;;;6.68;2.30;;;2.90;99.90;;;;;;5070071;28;20083;-83
2023/04/14 02:53:01;;;;;;;16.90;2.20;;;2.90;99.90;;;;;;5084731;28;20402;-78
2023/04/14 02:55:28;;;;;;;11.32;2.65;;;3.00;99.90;;;;;;5055200;28;20048;-66
2023/04/14 02:57:54;;;;;;;10.40;2.40;;;3.10;99.90;;;;;;5067967;28;20056;-66
2023/04/14 03:00:21;;;;;;;11.63;2.95;;;3.10;99.90;;;;;;5084642;28;20091;-66
2023/04/14 03:02:48;;;;;;;8.23;2.10;;;3.20;99.90;;;;;;5086542;28;20052;-66
2023/04/14 03:05:14;;;;;;;6.57;2.25;;;3.20;99.90;;;;;;5069831;28;20475;-66
2023/04/14 03:07:42;;;;;;;6.68;2.15;;;3.20;99.90;;;;;;5072489;28;20390;-65
2023/04/14 03:10:10;;;;;;;8.38;2.17;;;3.30;99.90;;;;;;5073131;28;20041;-66
2023/04/14 03:12:37;;;;;;;10.93;2.75;;;3.40;99.90;;;;;;5070742;28;20443;-66
2023/04/14 03:15:06;;;;;;;8.75;2.42;;;3.30;99.90;;;;;;5068548;28;20048;-75
2023/04/14 03:17:32;;;;;;;9.98;2.38;;;3.40;99.90;;;;;;5084936;28;20105;-65
2023/04/14 03:19:59;;;;;;;5.47;2.38;;;3.40;99.90;;;;;;5068866;28;20048;-66
2023/04/14 03:22:27;;;;;;;7.45;2.50;;;3.40;99.90;;;;;;5068732;28;20044;-66
2023/04/14 03:24:57;;;;;;;14.38;2.75;;;3.50;99.90;;;;;;5069638;28;20087;-66
2023/04/14 03:27:26;;;;;;;;;;;3.40;99.90;;;;;;5067367;28;20091;-70
2023/04/14 03:29:55;;;;;;;7.53;1.98;;;3.50;99.90;;;;;;5069458;28;20411;-66
2023/04/14 03:32:23;;;;;;;9.23;2.65;;;3.50;99.90;;;;;;5068067;28;20448;-65
2023/04/14 03:34:53;;;;;;;9.48;2.20;;;3.50;99.90;;;;;;5069664;28;20042;-65
2023/04/14 03:37:23;;;;;;;10.90;2.50;;;3.50;99.90;;;;;;5066882;28;20060;-65
2023/04/14 03:39:51;;;;;;;7.30;2.50;;;3.50;99.90;;;;;;5069333;28;20051;-65
2023/04/14 03:42:19;;;;;;;11.27;2.30;;;3.50;99.90;;;;;;5068603;28;20033;-66
2023/04/14 03:44:51;;;;;;;7.13;2.30;;;3.60;99.90;;;;;;5068373;28;20044;-66
2023/04/14 03:47:18;;;;;;;8.23;2.40;;;3.50;99.90;;;;;;5068937;28;20059;-66
2023/04/14 03:49:47;;;;;;;5.72;2.00;;;3.60;99.90;;;;;;5067813;28;20054;-66
2023/04/14 03:52:14;;;;;;;8.77;2.67;;;3.60;99.90;;;;;;5069413;28;20048;-65
2023/04/14 03:54:44;;;;;;;9.05;2.35;;;3.60;99.90;;;;;;5068092;28;20056;-65
2023/04/14 03:57:12;;;;;;;9.17;2.40;;;3.60;99.90;;;;;;5054465;28;20056;-79
2023/04/14 03:59:39;;;;;;;4.53;2.17;;;3.60;99.90;;;;;;5068439;28;20811;-67
2023/04/14 04:02:06;;;;;;;6.82;2.05;;;3.60;99.90;;;;;;5068357;28;20050;-66
2023/04/14 04:04:34;;;;;;;10.48;2.22;;;3.70;99.90;;;;;;5068694;28;20048;-80
2023/04/14 04:07:00;;;;;;;8.70;2.35;;;3.70;99.90;;;;;;5067220;28;20076;-66
2023/04/14 04:09:27;;;;;;;7.65;2.20;;;3.70;99.90;;;;;;5068665;28;20082;-66
2023/04/14 04:11:58;;;;;;;5.22;2.25;;;3.70;99.90;;;;;;5067953;28;20118;-72
2023/04/14 04:14:26;;;;;;;10.18;2.63;;;3.70;99.90;;;;;;5068127;28;20429;-69
2023/04/14 04:16:54;;;;;;;5.20;2.00;;;3.80;99.90;;;;;;5068515;28;20049;-66
2023/04/14 04:19:22;;;;;;;6.35;2.35;;;3.80;99.90;;;;;;5065944;28;20090;-66
2023/04/14 04:21:50;;;;;;;9.32;2.30;;;3.90;99.90;;;;;;5067331;28;20032;-65
2023/04/14 04:24:18;;;;;;;9.15;2.40;;;3.90;99.90;;;;;;5067030;28;20070;-70
2023/04/14 04:26:45;;;;;;;8.80;2.03;;;3.90;99.90;;;;;;5068221;28;20048;-66
2023/04/14 04:29:11;;;;;;;5.38;2.00;;;4.00;99.90;;;;;;5067611;28;20041;-65
2023/04/14 04:31:38;;;;;;;8.15;2.58;;;4.10;99.90;;;;;;5067483;28;20040;-65
2023/04/14 04:34:05;;;;;;;9.07;1.73;;;4.10;99.90;;;;;;5067407;28;20544;-66
2023/04/14 04:36:33;;;;;;;11.15;1.88;;;4.10;99.90;;;;;;5060290;28;20080;-66
2023/04/14 04:38:58;;;;;;;9.18;3.13;;;4.10;99.90;;;;;;5068760;28;20193;-66
2023/04/14 04:41:29;;;;;;;11.27;1.95;;;4.10;99.90;;;;;;5066226;28;20645;-65
2023/04/14 04:43:55;;;;;;;;;;;4.10;99.90;;;;;;5069106;28;20071;-66
2023/04/14 04:46:52;;;;;;;5.38;2.05;;;4.10;99.90;;;;;;5065214;28;20374;-65
2023/04/14 04:49:18;;;;;;;13.63;1.95;;;4.10;99.90;;;;;;5066289;28;20057;-66
2023/04/14 04:51:44;;;;;;;9.60;2.70;;;4.00;99.90;;;;;;5067402;28;20041;-65
2023/04/14 04:54:10;;;;;;;6.53;1.88;;;4.00;99.90;;;;;;5067335;28;20044;-66
2023/04/14 04:56:36;;;;;;;8.20;2.03;;;4.00;99.90;;;;;;5067291;28;20051;-66
2023/04/14 04:59:02;;;;;;;12.73;2.50;;;3.90;99.90;;;;;;5067373;28;20127;-66
2023/04/14 05:01:28;;;;;;;5.25;1.80;;;4.00;99.90;;;;;;5070399;28;20044;-79
2023/04/14 05:03:54;;;;;;;4.13;2.08;;;3.90;99.90;;;;;;5066315;28;20122;-66
2023/04/14 05:06:20;;;;;;;9.38;2.30;;;3.90;99.90;;;;;;5067140;28;20048;-66
2023/04/14 05:08:45;;;;;;;6.18;2.05;;;3.80;99.90;;;;;;5081902;28;20158;-66
2023/04/14 05:11:11;;;;;;;14.10;2.50;;;3.80;99.90;;;;;;5082842;28;20052;-66
2023/04/14 05:13:37;;;;;;;6.57;2.10;;;3.90;99.90;;;;;;5066946;28;20036;-66
2023/04/14 05:16:06;;;;;;;4.07;1.63;;;3.90;99.90;;;;;;5066559;28;20048;-66
2023/04/14 05:18:33;;;;;;;4.63;1.80;;;3.90;99.90;;;;;;5066506;28;20128;-67
2023/04/14 05:21:04;;;;;;;4.45;1.75;;;4.00;99.90;;;;;;5066589;28;20071;-68
2023/04/14 05:23:32;;;;;;;4.18;1.65;;;4.00;99.90;;;;;;5065782;28;20051;-65
2023/04/14 05:25:58;;;;;;;8.07;2.45;;;4.10;99.90;;;;;;5067063;28;20119;-66
2023/04/14 05:28:24;;;;;;;1.95;1.83;;;4.20;99.90;;;;;;5066568;28;20156;-67
2023/04/14 05:30:49;;;;;;;7.53;1.95;;;4.30;99.90;;;;;;5065506;28;20048;-70
2023/04/14 05:33:16;;;;;;;6.07;2.40;;;4.40;99.90;;;;;;5067104;28;20123;-66
2023/04/14 05:35:43;;;;;;;9.85;2.28;;;4.50;99.90;;;;;;5071385;28;20046;-66
2023/04/14 05:38:09;;;;;;;6.72;2.08;;;4.60;99.90;;;;;;5063620;28;20521;-66
2023/04/14 05:40:36;;;;;;;7.47;2.00;;;4.80;99.90;;;;;;5060593;28;20049;-66
2023/04/14 05:43:02;;;;;;;7.63;2.10;;;4.90;99.90;;;;;;5060435;28;20052;-65
2023/04/14 05:45:28;;;;;;;15.20;2.20;;;5.10;99.90;;;;;;5063310;28;20043;-66
2023/04/14 05:47:53;;;;;;;11.27;2.60;;;5.20;99.90;;;;;;5062012;28;20037;-65
2023/04/14 05:50:21;;;;;;;6.88;2.00;;;5.30;99.90;;;;;;5060241;28;20118;-65
2023/04/14 05:52:47;;;;;;;11.18;2.30;;;5.30;99.90;;;;;;5065097;28;20040;-66
2023/04/14 05:55:13;;;;;;;8.48;2.35;;;5.50;99.90;;;;;;5067179;28;20124;-65
2023/04/14 05:57:38;;;;;;;8.63;2.97;;;5.50;99.90;;;;;;5081118;28;20127;-65
2023/04/14 06:00:06;;;;;;;11.18;2.50;;;5.60;99.90;;;;;;5062846;28;20123;-79
2023/04/14 06:02:32;;;;;;;6.65;2.40;;;5.70;99.90;;;;;;5060141;28;20036;-66
2023/04/14 06:04:58;;;;;;;8.18;3.17;;;5.80;99.90;;;;;;5081192;28;20049;-77
2023/04/14 06:07:24;;;;;;;7.60;2.30;;;6.00;99.90;;;;;;5057007;28;20540;-66
2023/04/14 06:09:50;;;;;;;5.25;2.35;;;6.00;99.90;;;;;;5066595;28;20032;-66
2023/04/14 06:12:16;;;;;;;8.35;2.40;;;6.00;99.90;;;;;;5064748;28;20402;-66
2023/04/14 06:14:41;;;;;;;9.20;3.17;;;6.00;99.90;;;;;;5070652;28;20101;-66
2023/04/14 06:17:07;;;;;;;9.55;2.58;;;6.20;99.90;;;;;;5070038;28;20123;-65
2023/04/14 06:19:33;;;;;;;14.75;3.30;;;6.30;99.90;;;;;;5071147;28;20054;-66
2023/04/14 06:21:59;;;;;;;8.93;2.60;;;6.50;99.90;;;;;;5069964;28;20072;-66
2023/04/14 06:24:25;;;;;;;9.00;2.78;;;6.80;99.90;;;;;;5070589;28;20058;-65
2023/04/14 06:26:51;;;;;;;9.52;2.63;;;7.00;99.90;;;;;;5070187;28;20145;-65
2023/04/14 06:29:17;;;;;;;11.07;3.80;;;7.20;99.90;;;;;;5068639;28;20497;-66
2023/04/14 06:31:43;;;;;;;8.15;2.95;;;7.30;99.90;;;;;;5056593;28;20044;-65
2023/04/14 06:34:09;;;;;;;10.20;3.05;;;7.40;99.90;;;;;;5061496;28;20388;-66
2023/04/14 06:36:35;;;;;;;10.65;2.58;;;7.70;99.90;;;;;;5041733;28;20056;-66
2023/04/14 06:39:03;;;;;;;7.35;2.65;;;7.90;99.90;;;;;;5083591;28;20471;-65
2023/04/14 06:41:29;;;;;;;7.68;2.70;;;8.00;97.20;;;;;;5064525;28;20045;-65
2023/04/14 06:43:55;;;;;;;6.28;2.80;;;8.30;94.50;;;;;;5063701;28;20048;-65
2023/04/14 06:46:21;;;;;;;11.15;2.80;;;8.50;93.80;;;;;;5064078;28;20056;-65
2023/04/14 06:48:46;;;;;;;12.38;2.80;;;8.60;93.70;;;;;;5061986;28;20064;-65
2023/04/14 06:51:13;;;;;;;5.82;2.50;;;8.70;88.30;;;;;;5064768;28;20040;-65
2023/04/14 06:53:39;;;;;;;9.05;2.42;;;8.70;89.80;;;;;;5060351;28;20049;-64
2023/04/14 06:56:06;;;;;;;9.07;2.58;;;8.70;90.80;;;;;;5057712;28;20040;-66
2023/04/14 06:58:31;;;;;;;9.77;2.65;;;8.80;87.90;;;;;;5062959;28;20178;-65
2023/04/14 07:01:02;;;;;;;12.40;2.83;;;8.90;82.50;;;;;;5079125;28;21230;-64
2023/04/14 07:03:33;;;;;;;12.25;2.90;;;9.00;85.70;;;;;;5061482;28;20210;-64
2023/04/14 07:06:08;;;;;;;7.88;3.05;;;9.10;79.40;;;;;;5073904;28;20503;-64
2023/04/14 07:08:35;;;;;;;7.90;2.40;;;9.40;85.70;;;;;;5056643;28;20101;-65
2023/04/14 07:11:03;;;;;;;11.00;3.45;;;9.60;86.00;;;;;;5068374;28;20127;-64
2023/04/14 07:13:29;;;;;;;8.63;2.63;;;9.90;90.70;;;;;;5068641;28;20040;-64
2023/04/14 07:15:55;;;;;;;8.30;2.72;;;10.10;82.30;;;;;;5069643;28;20052;-66
2023/04/14 07:18:21;;;;;;;9.02;2.78;;;10.30;84.10;;;;;;5069299;28;20032;-64
2023/04/14 07:20:50;;;;;;;8.40;2.42;;;10.50;75.10;;;;;;5068354;28;20461;-64
2023/04/14 07:23:16;;;;;;;6.10;1.92;;;10.60;70.70;;;;;;5068355;28;20406;-63
2023/04/14 07:25:42;;;;;;;7.45;2.05;;;10.80;74.50;;;;;;5068535;28;20048;-64
2023/04/14 07:28:08;;;;;;;9.60;2.72;;;11.00;71.90;;;;;;5069012;28;20056;-64
2023/04/14 07:30:33;;;;;;;10.80;2.50;;;11.20;73.40;;;;;;5065821;28;20080;-64
2023/04/14 07:33:01;;;;;;;5.00;2.38;;;11.30;68.20;;;;;;5069540;28;20043;-64
2023/04/14 07:35:27;;;;;;;10.07;2.75;;;11.40;67.80;;;;;;5068465;28;20063;-64
2023/04/14 07:37:53;;;;;;;7.85;2.40;;;11.40;63.90;;;;;;5069011;28;20383;-64
2023/04/14 07:40:19;;;;;;;13.27;2.53;;;11.20;66.80;;;;;;5069043;28;20083;-64
2023/04/14 07:42:45;;;;;;;7.25;2.97;;;11.10;67.40;;;;;;5063000;28;20083;-64
2023/04/14 07:45:11;;;;;;;5.88;2.17;;;11.00;68.80;;;;;;5057884;28;20154;-64
2023/04/14 07:47:37;;;;;;;9.00;2.58;;;11.00;65.80;;;;;;5048436;28;20048;-64
2023/04/14 07:50:03;;;;;;;10.90;2.20;;;11.00;65.40;;;;;;5050894;28;20124;-63
2023/04/14 07:52:29;;;;;;;6.32;2.60;;;11.10;68.60;;;;;;5048558;28;20495;-63
2023/04/14 07:54:55;;;;;;;7.20;2.58;;;11.30;71.70;;;;;;5064431;28;20059;-64
2023/04/14 07:57:21;;;;;;;7.55;2.28;;;11.50;67.10;;;;;;5048737;28;20106;-64
2023/04/14 07:59:47;;;;;;;12.35;3.10;;;11.20;55.00;;;;;;5051897;28;20049;-64
2023/04/14 08:02:12;;;;;;;13.63;2.63;;;11.10;62.80;;;;;;5056224;28;20394;-63
2023/04/14 08:04:38;;;;;;;5.50;2.90;;;11.10;67.10;;;;;;5049676;28;20472;-64
2023/04/14 08:07:04;;;;;;;15.13;2.80;;;11.30;72.20;;;;;;5051576;28;20057;-63
2023/04/14 08:09:30;;;;;;;7.15;2.80;;;11.40;63.90;;;;;;5059769;28;20372;-63
2023/04/14 08:11:56;;;;;;;11.55;3.38;;;11.40;56.60;;;;;;5056894;28;20541;-63
2023/04/14 08:14:22;;;;;;;9.07;1.90;;;11.40;48.30;;;;;;5064404;28;20037;-63
2023/04/14 08:16:48;;;;;;;8.52;2.13;;;11.40;39.80;;;;;;5052752;28;20049;-63
2023/04/14 08:19:14;;;;;;;10.32;2.05;;;11.40;40.40;;;;;;5043376;28;20040;-63
2023/04/14 08:21:40;;;;;;;6.47;2.38;;;11.60;48.70;;;;;;5059630;28;20062;-63
2023/04/14 08:24:06;;;;;;;9.68;2.35;;;11.80;51.50;;;;;;5060771;28;20052;-67
2023/04/14 08:26:31;;;;;;;7.28;1.90;;;11.90;40.40;;;;;;5055226;28;20502;-64
2023/04/14 08:28:57;;;;;;;17.98;2.83;;;12.00;44.80;;;;;;5057087;28;20053;-63
2023/04/14 08:31:24;;;;;;;19.88;3.45;;;12.20;36.90;;;;;;5060068;28;20390;-63
2023/04/14 08:33:51;;;;;;;9.35;2.22;;;12.30;40.70;;;;;;5059136;28;20053;-63
2023/04/14 08:36:18;;;;;;;14.30;1.90;;;12.40;30.70;;;;;;5054588;28;20089;-63
2023/04/14 08:38:44;;;;;;;9.65;1.92;;;12.50;24.80;;;;;;5062254;28;20105;-63
2023/04/14 08:41:12;;;;;;;7.65;1.73;;;12.50;19.90;;;;;;5062917;28;20072;-63
2023/04/14 08:43:38;;;;;;;9.52;1.77;;;12.70;41.90;;;;;;5063634;28;20051;-63
2023/04/14 08:46:04;;;;;;;8.23;1.90;;;12.80;44.00;;;;;;5065810;28;20118;-64
2023/04/14 08:48:32;;;;;;;11.00;2.72;;;12.80;30.50;;;;;;5045515;28;20041;-63
2023/04/14 08:51:32;;;;;;;10.85;2.53;;;12.80;34.70;;;;;;5063780;28;20052;-64
2023/04/14 08:54:00;;;;;;;10.52;2.30;;;12.80;27.70;;;;;;5053514;28;20387;-63
2023/04/14 08:56:46;;;;;;;9.75;2.22;;;12.70;28.20;;;;;;5074747;28;20119;-63
2023/04/14 08:59:11;;;;;;;10.20;2.30;;;12.90;38.10;;;;;;5048613;28;20061;-63
2023/04/14 09:01:38;;;;;;;11.50;2.00;;;13.00;40.70;;;;;;5056276;28;20067;-63
2023/04/14 09:04:04;;;;;;;7.95;2.10;;;13.00;32.90;;;;;;5056861;28;20059;-63
2023/04/14 09:06:33;;;;;;;11.13;1.85;;;13.00;28.70;;;;;;5065615;28;20056;-63
2023/04/14 09:09:09;;;;;;;14.38;2.13;;;13.10;23.30;;;;;;5069232;28;20044;-63
2023/04/14 09:11:36;;;;;;;6.30;1.90;;;13.00;29.30;;;;;;5068621;28;20078;-63
2023/04/14 09:14:03;;;;;;;9.48;2.30;;;13.00;34.40;;;;;;5065607;28;20051;-63
2023/04/14 09:16:31;;;;;;;7.65;2.13;;;12.90;32.80;;;;;;5067012;28;20044;-63
2023/04/14 09:18:57;;;;;;;11.35;2.15;;;12.90;29.50;;;;;;5066096;28;20157;-63
2023/04/14 09:21:26;;;;;;;18.42;1.98;;;12.80;26.20;;;;;;5065778;28;20494;-63
2023/04/14 09:23:52;;;;;;;6.33;1.77;;;12.80;37.00;;;;;;5066564;28;20098;-63
2023/04/14 09:26:17;;;;;;;8.60;2.45;;;12.80;40.00;;;;;;5065056;28;20914;-63
2023/04/14 09:28:43;;;;;;;9.38;1.90;;;12.80;40.60;;;;;;5066772;28;20060;-63
2023/04/14 09:31:10;;;;;;;6.38;2.28;;;12.90;37.90;;;;;;5066510;28;20049;-63
2023/04/14 09:33:49;;;;;;;12.07;2.45;;;12.90;34.10;;;;;;5065983;28;20449;-62
2023/04/14 09:36:22;;;;;;;8.52;2.95;;;13.20;40.30;;;;;;5065687;28;20052;-63
2023/04/14 09:38:49;;;;;;;8.30;2.60;;;13.20;39.10;;;;;;5067119;28;20076;-63
2023/04/14 09:41:22;;;;;;;9.38;2.80;;;13.40;41.60;;;;;;5065908;28;20046;-63
2023/04/14 09:43:49;;;;;;;6.32;2.08;;;13.40;36.80;;;;;;5068989;28;20075;-62
2023/04/14 09:46:15;;;;;;;6.78;1.90;;;13.40;28.20;;;;;;5059273;28;20123;-63
2023/04/14 09:48:51;;;;;;;8.23;1.75;;;13.40;24.60;;;;;;5075255;28;20047;-63
2023/04/14 09:51:21;;;;;;;9.57;2.00;;;13.60;22.10;;;;;;5061434;28;20044;-62
2023/04/14 09:53:46;;;;;;;12.18;2.75;;;13.60;19.70;;;;;;5061338;28;20476;-63
2023/04/14 09:56:12;;;;;;;5.85;1.88;;;13.50;19.00;;;;;;5064852;28;20500;-62
2023/04/14 09:58:40;;;;;;;10.45;2.40;;;13.60;22.80;;;;;;5061541;28;20541;-62
2023/04/14 10:01:18;;;;;;;7.38;2.42;;;13.70;18.80;;;;;;5066904;28;20119;-63
2023/04/14 10:03:46;;;;;;;12.68;1.48;;;13.70;20.90;;;;;;5062334;28;20076;-62
2023/04/14 10:06:19;;;;;;;6.68;1.60;;;13.70;10.40;;;;;;5068617;28;20051;-62
2023/04/14 10:08:47;;;;;;;4.97;1.88;;;13.70;11.50;;;;;;5068741;28;20043;-62
2023/04/14 10:11:23;;;;;;;8.38;2.28;;;13.80;10.20;;;;;;5050731;28;20056;-62
2023/04/14 10:13:54;;;;;;;8.15;1.55;;;13.90;12.60;;;;;;5065184;28;20544;-68
2023/04/14 10:16:21;;;;;;;8.85;2.50;;;13.90;7.60;;;;;;5056240;28;20120;-62
2023/04/14 10:18:47;;;;;;;13.43;2.60;;;13.80;8.60;;;;;;5066622;28;20041;-63
2023/04/14 10:21:14;;;;;;;8.40;2.25;;;13.90;9.50;;;;;;5054206;28;20041;-62
2023/04/14 10:23:41;;;;;;;8.45;2.38;;;14.00;12.90;;;;;;5057851;28;20041;-62
2023/04/14 10:26:08;;;;;;;10.93;2.50;;;14.00;11.50;;;;;;5035001;28;20053;-63
2023/04/14 10:28:39;;;;;;;5.28;2.35;;;13.90;11.90;;;;;;5063022;28;20135;-62
2023/04/14 10:31:12;;;;;;;6.38;2.67;;;14.00;12.60;;;;;;5066022;28;20048;-62
2023/04/14 10:33:38;;;;;;;12.43;2.92;;;14.20;13.40;;;;;;5067994;28;20045;-62
2023/04/14 10:36:04;;;;;;;11.38;2.95;;;14.10;12.00;;;;;;5066895;28;20568;-62
2023/04/14 10:38:41;;;;;;;11.90;2.53;;;13.90;9.10;;;;;;5067375;28;20036;-63
2023/04/14 10:41:07;;;;;;;10.02;2.55;;;13.80;9.60;;;;;;5068699;28;20045;-63
2023/04/14 10:43:35;;;;;;;15.85;3.65;;;13.80;14.20;;;;;;5064314;28;20090;-63
2023/04/14 10:46:02;;;;;;;15.07;3.38;;;13.90;11.20;;;;;;5067309;28;20084;-63
2023/04/14 10:48:38;;;;;;;6.80;2.70;;;14.20;15.20;;;;;;5068058;28;20123;-62
2023/04/14 10:51:07;;;;;;;10.68;2.88;;;14.40;10.50;;;;;;5063702;28;20097;-62
2023/04/14 10:53:43;;;;;;;11.40;2.83;;;14.60;12.20;;;;;;5055260;28;20497;-62
2023/04/14 10:56:09;;;;;;;10.05;2.13;;;14.80;11.70;;;;;;5060978;28;20131;-62
2023/04/14 10:58:35;;;;;;;12.90;3.63;;;15.10;8.80;;;;;;5054080;28;20112;-62
2023/04/14 11:01:21;;;;;;;7.65;2.58;;;15.00;6.00;;;;;;5064205;28;20049;-63
2023/04/14 11:03:47;;;;;;;12.68;2.80;;;14.80;5.40;;;;;;5061869;28;20394;-67
2023/04/14 11:06:13;;;;;;;9.38;2.50;;;14.60;7.60;;;;;;5066168;28;20080;-63
2023/04/14 11:08:48;;;;;;;9.52;2.83;;;14.50;3.60;;;;;;5065396;28;20530;-62
2023/04/14 11:11:15;;;;;;;8.20;3.00;;;14.20;9.80;;;;;;5064841;28;20074;-62
2023/04/14 11:13:41;;;;;;;10.02;2.60;;;14.20;10.60;;;;;;5057844;28;20044;-62
2023/04/14 11:16:07;;;;;;;10.32;2.92;;;13.90;6.90;;;;;;5054189;28;20041;-62
2023/04/14 11:18:41;;;;;;;6.70;2.28;;;13.50;8.00;;;;;;5057315;28;20471;-63
2023/04/14 11:21:15;;;;;;;12.38;3.22;;;13.50;10.10;;;;;;5046959;28;20375;-62
2023/04/14 11:23:42;;;;;;;7.00;2.45;;;13.40;11.10;;;;;;5066364;28;20056;-62
2023/04/14 11:26:09;;;;;;;13.60;2.95;;;13.60;12.30;;;;;;5067458;28;20499;-62
2023/04/14 11:28:37;;;;;;;5.07;2.40;;;13.90;8.00;;;;;;5067043;28;20067;-62
2023/04/14 11:31:05;;;;;;;8.65;2.72;;;13.90;9.80;;;;;;5066933;28;20055;-62
2023/04/14 11:33:32;;;;;;;10.10;2.85;;;13.70;7.80;;;;;;5063651;28;20078;-63
2023/04/14 11:36:00;;;;;;;7.63;2.55;;;13.60;10.50;;;;;;5071245;28;20040;-63
2023/04/14 11:38:26;;;;;;;11.00;3.08;;;13.50;11.10;;;;;;5050432;28;20056;-62
2023/04/14 11:40:52;;;;;;;9.32;3.03;;;13.90;10.70;;;;;;5056188;28;20044;-62
2023/04/14 11:43:19;;;;;;;11.98;2.78;;;14.10;10.40;;;;;;5074423;28;20082;-62
2023/04/14 11:45:46;;;;;;;10.32;3.33;;;14.10;10.20;;;;;;5060043;28;20159;-63
2023/04/14 11:48:15;;;;;;;16.80;3.33;;;14.00;9.70;;;;;;5059034;28;20044;-63
2023/04/14 11:50:42;;;;;;;9.93;2.80;;;14.20;9.90;;;;;;5056580;28;20044;-63
2023/04/14 11:53:11;;;;;;;7.60;2.55;;;14.30;9.90;;;;;;5053671;28;20052;-64
2023/04/14 11:55:47;;;;;;;12.80;3.40;;;14.30;4.80;;;;;;5052133;28;20069;-64
2023/04/14 11:58:15;;;;;;;12.32;2.85;;;14.60;9.00;;;;;;5054442;28;20032;-64
2023/04/14 12:00:42;;;;;;;9.77;2.72;;;14.50;9.00;;;;;;5059176;28;20036;-67
2023/04/14 12:03:08;;;;;;;9.57;3.47;;;14.50;4.10;;;;;;5063787;28;20045;-64
2023/04/14 12:05:34;;;;;;;12.75;3.55;;;14.50;4.10;;;;;;5051456;28;20045;-63
2023/04/14 12:08:07;;;;;;;11.25;3.22;;;14.30;7.60;;;;;;5061388;28;20585;-63
2023/04/14 12:10:33;;;;;;;7.72;2.95;;;14.20;8.10;;;;;;5061445;28;20490;-62
2023/04/14 12:13:03;;;;;;;10.30;3.00;;;14.20;7.80;;;;;;5066708;28;20059;-64
2023/04/14 12:15:35;;;;;;;14.18;3.33;;;14.20;10.30;;;;;;5066276;28;20071;-63
2023/04/14 12:18:02;;;;;;;11.50;2.53;;;14.20;9.50;;;;;;5057361;28;20083;-62
2023/04/14 12:20:40;;;;;;;12.65;3.35;;;14.30;4.30;;;;;;5061832;28;20086;-62
2023/04/14 12:23:06;;;;;;;15.40;3.15;;;14.10;5.30;;;;;;5049379;28;20037;-63
2023/04/14 12:25:32;;;;;;;11.32;2.67;;;14.10;6.80;;;;;;5054188;28;20098;-63
2023/04/14 12:28:01;;;;;;;13.50;3.75;;;14.00;6.30;;;;;;5059783;28;20499;-62
2023/04/14 12:30:27;;;;;;;14.70;2.90;;;14.10;8.50;;;;;;5055326;28;20060;-63
2023/04/14 12:32:53;;;;;;;14.45;4.13;;;14.10;8.50;;;;;;5062357;28;20028;-63
2023/04/14 12:35:23;;;;;;;16.98;3.78;;;14.20;9.80;;;;;;5053335;28;20052;-63
2023/04/14 12:37:50;;;;;;;11.27;2.97;;;14.20;5.60;;;;;;5062296;28;20041;-63
2023/04/14 12:40:17;;;;;;;9.30;2.90;;;14.20;7.00;;;;;;5053765;28;20064;-65
2023/04/14 12:42:47;;;;;;;11.45;3.08;;;14.30;4.50;;;;;;5078273;28;20044;-63
2023/04/14 12:45:15;;;;;;;15.10;3.67;;;14.50;5.60;;;;;;5053577;28;20047;-63
2023/04/14 12:47:53;;;;;;;12.20;2.80;;;14.70;7.10;;;;;;5062676;28;20044;-64
2023/04/14 12:50:27;;;;;;;8.75;3.00;;;14.90;4.10;;;;;;5060056;28;20040;-63
2023/04/14 12:52:54;;;;;;;13.00;3.10;;;15.20;4.30;;;;;;5066644;28;20040;-63
2023/04/14 12:55:22;;;;;;;18.17;3.42;;;15.50;4.90;;;;;;5061808;28;20043;-63
2023/04/14 12:57:55;;;;;;;11.05;2.72;;;15.60;3.80;;;;;;5064404;28;20036;-63